sensor_id;sensor_type;location;lat;lon;timestamp;pressure;altitude;pressure_sealevel;temperature;humidity
69971;BME280;57301;50.328;8.542;2023-04-28T00:01:12;98360.19;;;8.46;78.79
69971;BME280;57301;50.328;8.542;2023-04-28T00:03:39;98352.53;;;8.43;79.55
69971;BME280;57301;50.328;8.542;2023-04-28T00:06:05;98348.75;;;8.45;79.94
69971;BME280;57301;50.328;8.542;2023-04-28T00:08:32;98335.28;;;8.47;79.52
69971;BME280;57301;50.328;8.542;2023-04-28T00:10:58;98321.59;;;8.51;79.21
69971;BME280;57301;50.328;8.542;2023-04-28T00:13:26;98322.56;;;8.60;78.28
69971;BME280;57301;50.328;8.542;2023-04-28T00:15:52;98323.97;;;8.54;79.26
69971;BME280;57301;50.328;8.542;2023-04-28T00:18:20;98317.34;;;8.58;80.11
69971;BME280;57301;50.328;8.542;2023-04-28T00:20:47;98310.69;;;8.54;79.97
69971;BME280;57301;50.328;8.542;2023-04-28T00:23:14;98307.47;;;8.51;80.11
69971;BME280;57301;50.328;8.542;2023-04-28T00:25:41;98304.81;;;8.51;80.66
69971;BME280;57301;50.328;8.542;2023-04-28T00:28:07;98304.66;;;8.52;80.78
69971;BME280;57301;50.328;8.542;2023-04-28T00:30:34;98303.53;;;8.55;79.85
69971;BME280;57301;50.328;8.542;2023-04-28T00:33:00;98302.31;;;8.40;78.74
69971;BME280;57301;50.328;8.542;2023-04-28T00:35:27;98295.50;;;8.37;77.94
69971;BME280;57301;50.328;8.542;2023-04-28T00:37:53;98295.63;;;8.36;78.51
69971;BME280;57301;50.328;8.542;2023-04-28T00:40:20;98291.69;;;8.40;77.79
69971;BME280;57301;50.328;8.542;2023-04-28T00:42:46;98289.75;;;8.42;79.26
69971;BME280;57301;50.328;8.542;2023-04-28T00:45:13;98293.34;;;8.50;79.19
69971;BME280;57301;50.328;8.542;2023-04-28T00:47:40;98291.00;;;8.47;80.16
69971;BME280;57301;50.328;8.542;2023-04-28T00:50:07;98288.19;;;8.39;79.65
69971;BME280;57301;50.328;8.542;2023-04-28T00:52:37;98287.66;;;8.36;80.59
69971;BME280;57301;50.328;8.542;2023-04-28T00:55:04;98289.03;;;8.40;80.78
69971;BME280;57301;50.328;8.542;2023-04-28T00:57:32;98277.28;;;8.42;80.31
69971;BME280;57301;50.328;8.542;2023-04-28T00:59:59;98276.59;;;8.40;80.79
69971;BME280;57301;50.328;8.542;2023-04-28T01:02:26;98268.91;;;8.37;80.17
69971;BME280;57301;50.328;8.542;2023-04-28T01:04:57;98263.31;;;8.30;80.79
69971;BME280;57301;50.328;8.542;2023-04-28T01:07:24;98250.72;;;8.32;81.58
69971;BME280;57301;50.328;8.542;2023-04-28T01:09:50;98255.69;;;8.18;83.19
69971;BME280;57301;50.328;8.542;2023-04-28T01:12:17;98244.56;;;8.32;81.23
69971;BME280;57301;50.328;8.542;2023-04-28T01:14:43;98250.72;;;8.32;80.42
69971;BME280;57301;50.328;8.542;2023-04-28T01:17:10;98244.31;;;8.25;80.48
69971;BME280;57301;50.328;8.542;2023-04-28T01:19:37;98243.06;;;8.20;82.51
69971;BME280;57301;50.328;8.542;2023-04-28T01:22:03;98248.25;;;8.21;82.61
69971;BME280;57301;50.328;8.542;2023-04-28T01:24:30;98236.78;;;8.21;83.70
69971;BME280;57301;50.328;8.542;2023-04-28T01:26:56;98244.63;;;8.13;83.99
69971;BME280;57301;50.328;8.542;2023-04-28T01:29:23;98244.31;;;8.25;83.43
69971;BME280;57301;50.328;8.542;2023-04-28T01:31:49;98237.19;;;8.26;83.43
69971;BME280;57301;50.328;8.542;2023-04-28T01:34:16;98237.28;;;8.34;82.97
69971;BME280;57301;50.328;8.542;2023-04-28T01:36:43;98228.91;;;8.39;82.25
69971;BME280;57301;50.328;8.542;2023-04-28T01:39:09;98232.56;;;8.38;82.40
69971;BME280;57301;50.328;8.542;2023-04-28T01:41:36;98231.81;;;8.45;82.09
69971;BME280;57301;50.328;8.542;2023-04-28T01:44:02;98231.13;;;8.43;82.27
69971;BME280;57301;50.328;8.542;2023-04-28T01:46:30;98226.66;;;8.44;81.97
69971;BME280;57301;50.328;8.542;2023-04-28T01:48:56;98214.88;;;8.46;82.01
69971;BME280;57301;50.328;8.542;2023-04-28T01:51:23;98212.69;;;8.42;83.73
69971;BME280;57301;50.328;8.542;2023-04-28T01:56:35;98213.28;;;8.36;83.52
69971;BME280;57301;50.328;8.542;2023-04-28T01:59:01;98202.09;;;8.22;84.97
69971;BME280;57301;50.328;8.542;2023-04-28T02:01:28;98207.41;;;8.22;86.07
69971;BME280;57301;50.328;8.542;2023-04-28T02:03:54;98208.81;;;8.26;86.32
69971;BME280;57301;50.328;8.542;2023-04-28T02:06:21;98207.13;;;8.25;86.70
69971;BME280;57301;50.328;8.542;2023-04-28T02:08:48;98212.28;;;8.37;86.27
69971;BME280;57301;50.328;8.542;2023-04-28T02:11:14;98220.81;;;8.30;86.29
69971;BME280;57301;50.328;8.542;2023-04-28T02:13:41;98217.84;;;8.33;86.34
69971;BME280;57301;50.328;8.542;2023-04-28T02:16:07;98221.56;;;8.23;87.17
69971;BME280;57301;50.328;8.542;2023-04-28T02:18:33;98215.19;;;8.06;88.96
69971;BME280;57301;50.328;8.542;2023-04-28T02:21:11;98203.31;;;7.91;90.72
69971;BME280;57301;50.328;8.542;2023-04-28T02:23:38;98196.91;;;7.84;90.22
69971;BME280;57301;50.328;8.542;2023-04-28T02:26:05;98199.31;;;7.87;91.29
69971;BME280;57301;50.328;8.542;2023-04-28T02:28:32;98198.00;;;7.91;90.15
69971;BME280;57301;50.328;8.542;2023-04-28T02:31:09;98190.75;;;7.93;90.57
69971;BME280;57301;50.328;8.542;2023-04-28T02:33:36;98195.63;;;7.97;90.08
69971;BME280;57301;50.328;8.542;2023-04-28T02:36:04;98199.78;;;8.09;89.57
69971;BME280;57301;50.328;8.542;2023-04-28T02:38:31;98197.50;;;7.87;90.85
69971;BME280;57301;50.328;8.542;2023-04-28T02:41:03;98190.47;;;7.96;89.84
69971;BME280;57301;50.328;8.542;2023-04-28T02:43:34;98195.75;;;8.05;89.97
69971;BME280;57301;50.328;8.542;2023-04-28T02:46:03;98193.63;;;8.09;90.37
69971;BME280;57301;50.328;8.542;2023-04-28T02:48:30;98199.91;;;8.08;90.50
69971;BME280;57301;50.328;8.542;2023-04-28T02:50:58;98198.41;;;8.05;91.46
69971;BME280;57301;50.328;8.542;2023-04-28T02:53:24;98195.63;;;7.97;91.60
69971;BME280;57301;50.328;8.542;2023-04-28T02:55:51;98184.63;;;7.92;92.48
69971;BME280;57301;50.328;8.542;2023-04-28T02:58:18;98175.28;;;7.78;93.58
69971;BME280;57301;50.328;8.542;2023-04-28T03:00:45;98163.81;;;7.78;93.01
69971;BME280;57301;50.328;8.542;2023-04-28T03:03:11;98164.91;;;7.85;93.96
69971;BME280;57301;50.328;8.542;2023-04-28T03:05:38;98169.22;;;7.96;93.99
69971;BME280;57301;50.328;8.542;2023-04-28T03:08:05;98170.06;;;7.96;95.00
69971;BME280;57301;50.328;8.542;2023-04-28T03:10:32;98170.44;;;8.11;94.29
69971;BME280;57301;50.328;8.542;2023-04-28T03:12:58;98172.63;;;8.16;94.47
69971;BME280;57301;50.328;8.542;2023-04-28T03:15:25;98169.72;;;8.09;94.79
69971;BME280;57301;50.328;8.542;2023-04-28T03:17:51;98166.13;;;8.00;95.66
69971;BME280;57301;50.328;8.542;2023-04-28T03:20:18;98162.22;;;8.04;95.19
69971;BME280;57301;50.328;8.542;2023-04-28T03:22:44;98149.19;;;8.11;94.84
69971;BME280;57301;50.328;8.542;2023-04-28T03:25:11;98142.34;;;8.08;95.13
69971;BME280;57301;50.328;8.542;2023-04-28T03:27:37;98139.28;;;8.03;95.30
69971;BME280;57301;50.328;8.542;2023-04-28T03:30:05;98132.31;;;8.02;95.17
69971;BME280;57301;50.328;8.542;2023-04-28T03:32:32;98124.06;;;8.05;95.21
69971;BME280;57301;50.328;8.542;2023-04-28T03:34:58;98128.31;;;8.16;95.73
69971;BME280;57301;50.328;8.542;2023-04-28T03:37:25;98122.72;;;8.19;95.03
69971;BME280;57301;50.328;8.542;2023-04-28T03:39:51;98125.06;;;8.22;94.90
69971;BME280;57301;50.328;8.542;2023-04-28T03:42:18;98123.72;;;8.18;95.09
69971;BME280;57301;50.328;8.542;2023-04-28T03:44:44;98126.75;;;8.23;94.75
69971;BME280;57301;50.328;8.542;2023-04-28T03:47:11;98123.56;;;8.20;96.14
69971;BME280;57301;50.328;8.542;2023-04-28T03:49:38;98131.09;;;8.24;96.45
69971;BME280;57301;50.328;8.542;2023-04-28T03:52:04;98126.25;;;8.10;97.14
69971;BME280;57301;50.328;8.542;2023-04-28T03:54:31;98132.59;;;7.99;98.26
69971;BME280;57301;50.328;8.542;2023-04-28T03:56:58;98119.59;;;7.96;97.84
69971;BME280;57301;50.328;8.542;2023-04-28T03:59:25;98118.38;;;7.91;98.99
69971;BME280;57301;50.328;8.542;2023-04-28T04:01:52;98125.31;;;8.01;98.07
69971;BME280;57301;50.328;8.542;2023-04-28T04:04:18;98114.44;;;8.04;97.43
69971;BME280;57301;50.328;8.542;2023-04-28T04:06:46;98099.94;;;7.89;98.72
69971;BME280;57301;50.328;8.542;2023-04-28T04:09:12;98097.84;;;7.93;97.86
69971;BME280;57301;50.328;8.542;2023-04-28T04:11:39;98100.50;;;7.93;98.04
69971;BME280;57301;50.328;8.542;2023-04-28T04:16:40;98111.75;;;8.04;97.76
69971;BME280;57301;50.328;8.542;2023-04-28T04:19:07;98099.19;;;7.97;97.98
69971;BME280;57301;50.328;8.542;2023-04-28T04:21:34;98104.91;;;8.02;97.97
69971;BME280;57301;50.328;8.542;2023-04-28T04:24:00;98108.72;;;7.99;98.23
69971;BME280;57301;50.328;8.542;2023-04-28T04:26:27;98116.69;;;7.99;97.70
69971;BME280;57301;50.328;8.542;2023-04-28T04:28:53;98121.25;;;8.07;97.34
69971;BME280;57301;50.328;8.542;2023-04-28T04:31:19;98122.47;;;8.13;96.88
69971;BME280;57301;50.328;8.542;2023-04-28T04:33:48;98126.22;;;8.20;96.00
69971;BME280;57301;50.328;8.542;2023-04-28T04:36:14;98134.34;;;8.18;96.36
69971;BME280;57301;50.328;8.542;2023-04-28T04:38:40;98124.88;;;8.06;97.38
69971;BME280;57301;50.328;8.542;2023-04-28T04:41:07;98126.97;;;8.12;97.14
69971;BME280;57301;50.328;8.542;2023-04-28T04:43:33;98124.19;;;8.04;99.52
69971;BME280;57301;50.328;8.542;2023-04-28T04:46:00;98142.88;;;8.12;98.32
69971;BME280;57301;50.328;8.542;2023-04-28T04:48:29;98134.50;;;8.17;99.33
69971;BME280;57301;50.328;8.542;2023-04-28T04:50:55;98137.91;;;8.27;97.92
69971;BME280;57301;50.328;8.542;2023-04-28T04:53:22;98144.88;;;8.28;97.67
69971;BME280;57301;50.328;8.542;2023-04-28T04:55:48;98142.22;;;8.28;97.45
69971;BME280;57301;50.328;8.542;2023-04-28T04:58:15;98136.34;;;8.34;97.45
69971;BME280;57301;50.328;8.542;2023-04-28T05:03:23;98131.28;;;8.13;100.00
69971;BME280;57301;50.328;8.542;2023-04-28T05:05:50;98123.47;;;8.12;100.00
69971;BME280;57301;50.328;8.542;2023-04-28T05:08:16;98126.16;;;8.02;100.00
69971;BME280;57301;50.328;8.542;2023-04-28T05:10:43;98120.25;;;8.08;100.00
69971;BME280;57301;50.328;8.542;2023-04-28T05:13:09;98115.97;;;8.25;100.00
69971;BME280;57301;50.328;8.542;2023-04-28T05:15:36;98109.72;;;8.16;100.00
69971;BME280;57301;50.328;8.542;2023-04-28T05:18:02;98113.84;;;8.11;100.00
69971;BME280;57301;50.328;8.542;2023-04-28T05:20:35;98109.47;;;8.09;100.00
69971;BME280;57301;50.328;8.542;2023-04-28T05:23:02;98107.53;;;8.12;100.00
69971;BME280;57301;50.328;8.542;2023-04-28T05:25:28;98114.19;;;8.16;100.00
69971;BME280;57301;50.328;8.542;2023-04-28T05:27:55;98107.78;;;8.18;100.00
69971;BME280;57301;50.328;8.542;2023-04-28T05:30:22;98103.81;;;8.22;100.00
69971;BME280;57301;50.328;8.542;2023-04-28T05:32:48;98108.03;;;8.25;100.00
69971;BME280;57301;50.328;8.542;2023-04-28T05:35:15;98109.41;;;8.29;100.00
69971;BME280;57301;50.328;8.542;2023-04-28T05:37:41;98107.25;;;8.32;100.00
69971;BME280;57301;50.328;8.542;2023-04-28T05:40:11;98110.69;;;8.25;100.00
69971;BME280;57301;50.328;8.542;2023-04-28T05:42:37;98111.94;;;8.21;100.00
69971;BME280;57301;50.328;8.542;2023-04-28T05:45:05;98109.44;;;8.19;100.00
69971;BME280;57301;50.328;8.542;2023-04-28T05:47:32;98114.00;;;8.37;100.00
69971;BME280;57301;50.328;8.542;2023-04-28T05:49:58;98115.81;;;8.36;100.00
69971;BME280;57301;50.328;8.542;2023-04-28T05:52:25;98113.16;;;8.36;99.71
69971;BME280;57301;50.328;8.542;2023-04-28T05:54:51;98115.38;;;8.31;99.68
69971;BME280;57301;50.328;8.542;2023-04-28T05:57:18;98113.84;;;8.28;99.55
69971;BME280;57301;50.328;8.542;2023-04-28T05:59:45;98107.38;;;8.13;99.57
69971;BME280;57301;50.328;8.542;2023-04-28T06:02:37;98114.91;;;8.18;99.39
69971;BME280;57301;50.328;8.542;2023-04-28T06:05:23;98120.34;;;8.16;99.56
69971;BME280;57301;50.328;8.542;2023-04-28T06:08:15;98133.34;;;8.19;98.70
69971;BME280;57301;50.328;8.542;2023-04-28T06:11:05;98129.31;;;8.15;99.20
69971;BME280;57301;50.328;8.542;2023-04-28T06:13:57;98140.22;;;8.12;100.00
69971;BME280;57301;50.328;8.542;2023-04-28T06:16:45;98132.03;;;8.05;99.91
69971;BME280;57301;50.328;8.542;2023-04-28T06:19:41;98136.88;;;8.10;100.00
69971;BME280;57301;50.328;8.542;2023-04-28T06:36:30;98137.06;;;8.26;100.00
69971;BME280;57301;50.328;8.542;2023-04-28T06:38:58;98132.50;;;8.19;100.00
69971;BME280;57301;50.328;8.542;2023-04-28T06:41:24;98120.63;;;8.23;100.00
69971;BME280;57301;50.328;8.542;2023-04-28T06:43:51;98116.91;;;8.33;100.00
69971;BME280;57301;50.328;8.542;2023-04-28T06:46:17;98114.91;;;8.45;100.00
69971;BME280;57301;50.328;8.542;2023-04-28T06:48:44;98124.47;;;8.38;100.00
69971;BME280;57301;50.328;8.542;2023-04-28T06:51:11;98115.06;;;8.34;100.00
69971;BME280;57301;50.328;8.542;2023-04-28T06:53:37;98116.28;;;8.49;100.00
69971;BME280;57301;50.328;8.542;2023-04-28T06:56:04;98109.91;;;8.42;100.00
69971;BME280;57301;50.328;8.542;2023-04-28T06:58:31;98106.59;;;8.30;99.99
69971;BME280;57301;50.328;8.542;2023-04-28T07:00:58;98108.69;;;8.37;100.00
69971;BME280;57301;50.328;8.542;2023-04-28T07:03:25;98091.63;;;8.29;100.00
69971;BME280;57301;50.328;8.542;2023-04-28T07:05:52;98090.09;;;8.27;100.00
69971;BME280;57301;50.328;8.542;2023-04-28T07:08:18;98087.34;;;8.46;100.00
69971;BME280;57301;50.328;8.542;2023-04-28T07:10:45;98104.97;;;8.65;100.00
69971;BME280;57301;50.328;8.542;2023-04-28T07:13:11;98097.91;;;8.56;100.00
69971;BME280;57301;50.328;8.542;2023-04-28T07:15:38;98088.13;;;8.56;100.00
69971;BME280;57301;50.328;8.542;2023-04-28T07:18:05;98088.28;;;8.55;100.00
69971;BME280;57301;50.328;8.542;2023-04-28T07:20:31;98078.03;;;8.60;100.00
69971;BME280;57301;50.328;8.542;2023-04-28T07:22:58;98076.81;;;8.72;100.00
69971;BME280;57301;50.328;8.542;2023-04-28T07:25:24;98070.28;;;8.84;99.16
69971;BME280;57301;50.328;8.542;2023-04-28T07:27:51;98076.69;;;9.18;99.42
69971;BME280;57301;50.328;8.542;2023-04-28T07:30:19;98073.94;;;9.27;99.62
69971;BME280;57301;50.328;8.542;2023-04-28T07:32:50;98062.31;;;9.28;99.87
69971;BME280;57301;50.328;8.542;2023-04-28T07:35:17;98052.66;;;9.27;100.00
69971;BME280;57301;50.328;8.542;2023-04-28T07:37:44;98045.59;;;9.18;100.00
69971;BME280;57301;50.328;8.542;2023-04-28T07:40:10;98038.16;;;9.22;100.00
69971;BME280;57301;50.328;8.542;2023-04-28T07:42:37;98044.38;;;9.38;98.66
69971;BME280;57301;50.328;8.542;2023-04-28T07:45:04;98055.41;;;9.43;97.72
69971;BME280;57301;50.328;8.542;2023-04-28T07:47:30;98067.22;;;9.41;95.55
69971;BME280;57301;50.328;8.542;2023-04-28T07:49:57;98071.91;;;9.21;96.57
69971;BME280;57301;50.328;8.542;2023-04-28T07:52:25;98075.19;;;9.15;96.36
69971;BME280;57301;50.328;8.542;2023-04-28T07:54:52;98070.78;;;9.06;97.04
69971;BME280;57301;50.328;8.542;2023-04-28T07:57:19;98079.59;;;9.06;96.37
69971;BME280;57301;50.328;8.542;2023-04-28T07:59:45;98073.38;;;8.98;97.62
69971;BME280;57301;50.328;8.542;2023-04-28T08:02:12;98085.84;;;8.97;99.08
69971;BME280;57301;50.328;8.542;2023-04-28T08:04:40;98080.69;;;8.78;98.91
69971;BME280;57301;50.328;8.542;2023-04-28T08:07:07;98078.94;;;8.86;99.77
69971;BME280;57301;50.328;8.542;2023-04-28T08:09:34;98084.78;;;8.90;98.80
69971;BME280;57301;50.328;8.542;2023-04-28T08:12:01;98079.81;;;8.95;99.50
69971;BME280;57301;50.328;8.542;2023-04-28T08:14:27;98090.84;;;9.00;98.16
69971;BME280;57301;50.328;8.542;2023-04-28T08:16:55;98089.63;;;8.95;98.98
69971;BME280;57301;50.328;8.542;2023-04-28T08:19:22;98087.56;;;9.06;99.15
69971;BME280;57301;50.328;8.542;2023-04-28T08:21:49;98086.94;;;9.12;99.60
69971;BME280;57301;50.328;8.542;2023-04-28T08:24:15;98088.56;;;9.05;100.00
69971;BME280;57301;50.328;8.542;2023-04-28T08:26:42;98091.28;;;8.96;100.00
69971;BME280;57301;50.328;8.542;2023-04-28T08:29:09;98091.78;;;8.91;100.00
69971;BME280;57301;50.328;8.542;2023-04-28T08:31:36;98092.28;;;8.95;100.00
69971;BME280;57301;50.328;8.542;2023-04-28T08:34:02;98098.38;;;9.05;100.00
69971;BME280;57301;50.328;8.542;2023-04-28T08:36:29;98100.44;;;8.93;100.00
69971;BME280;57301;50.328;8.542;2023-04-28T08:38:57;98094.34;;;9.01;100.00
69971;BME280;57301;50.328;8.542;2023-04-28T08:41:25;98095.47;;;9.16;100.00
69971;BME280;57301;50.328;8.542;2023-04-28T08:43:53;98091.00;;;8.99;100.00
69971;BME280;57301;50.328;8.542;2023-04-28T08:46:20;98094.03;;;9.04;100.00
69971;BME280;57301;50.328;8.542;2023-04-28T08:48:48;98087.94;;;9.11;100.00
69971;BME280;57301;50.328;8.542;2023-04-28T08:51:25;98090.16;;;9.16;100.00
69971;BME280;57301;50.328;8.542;2023-04-28T08:53:54;98098.16;;;9.42;100.00
69971;BME280;57301;50.328;8.542;2023-04-28T08:56:42;98099.13;;;9.67;100.00
69971;BME280;57301;50.328;8.542;2023-04-28T08:59:11;98099.53;;;9.80;100.00
69971;BME280;57301;50.328;8.542;2023-04-28T09:01:38;98087.94;;;9.63;98.61
69971;BME280;57301;50.328;8.542;2023-04-28T09:04:05;98100.97;;;10.01;99.95
69971;BME280;57301;50.328;8.542;2023-04-28T09:06:37;98105.97;;;10.38;97.36
69971;BME280;57301;50.328;8.542;2023-04-28T09:12:00;98107.13;;;10.35;98.42
69971;BME280;57301;50.328;8.542;2023-04-28T09:14:28;98101.19;;;10.66;97.17
69971;BME280;57301;50.328;8.542;2023-04-28T09:16:55;98102.84;;;10.67;96.42
69971;BME280;57301;50.328;8.542;2023-04-28T09:19:22;98092.06;;;10.76;96.65
69971;BME280;57301;50.328;8.542;2023-04-28T09:21:51;98092.22;;;10.91;93.75
69971;BME280;57301;50.328;8.542;2023-04-28T09:26:51;98094.22;;;11.38;91.72
69971;BME280;57301;50.328;8.542;2023-04-28T09:29:21;98095.72;;;11.49;91.52
69971;BME280;57301;50.328;8.542;2023-04-28T09:31:48;98093.84;;;11.66;91.02
69971;BME280;57301;50.328;8.542;2023-04-28T09:34:15;98090.50;;;11.64;91.63
69971;BME280;57301;50.328;8.542;2023-04-28T09:36:42;98092.31;;;11.71;91.61
69971;BME280;57301;50.328;8.542;2023-04-28T09:39:08;98093.16;;;11.72;91.55
69971;BME280;57301;50.328;8.542;2023-04-28T09:44:10;98097.56;;;11.48;91.53
69971;BME280;57301;50.328;8.542;2023-04-28T09:46:37;98098.53;;;11.64;91.91
69971;BME280;57301;50.328;8.542;2023-04-28T09:49:03;98094.16;;;11.87;91.51
69971;BME280;57301;50.328;8.542;2023-04-28T09:51:30;98093.41;;;12.09;91.79
69971;BME280;57301;50.328;8.542;2023-04-28T09:53:59;98088.94;;;12.33;89.60
69971;BME280;57301;50.328;8.542;2023-04-28T09:56:27;98090.28;;;12.91;86.16
69971;BME280;57301;50.328;8.542;2023-04-28T09:58:59;98091.22;;;12.52;85.77
69971;BME280;57301;50.328;8.542;2023-04-28T10:01:27;98087.78;;;12.89;86.09
69971;BME280;57301;50.328;8.542;2023-04-28T10:03:59;98095.78;;;13.12;85.39
69971;BME280;57301;50.328;8.542;2023-04-28T10:06:27;98092.84;;;13.30;85.74
69971;BME280;57301;50.328;8.542;2023-04-28T10:08:55;98092.72;;;13.24;89.43
69971;BME280;57301;50.328;8.542;2023-04-28T10:11:24;98086.59;;;13.53;86.73
69971;BME280;57301;50.328;8.542;2023-04-28T10:13:52;98090.53;;;13.27;86.76
69971;BME280;57301;50.328;8.542;2023-04-28T10:16:19;98094.69;;;13.30;88.43
69971;BME280;57301;50.328;8.542;2023-04-28T10:18:46;98082.78;;;13.09;86.41
69971;BME280;57301;50.328;8.542;2023-04-28T10:21:16;98081.44;;;13.66;85.24
69971;BME280;57301;50.328;8.542;2023-04-28T10:26:26;98065.19;;;14.63;80.39
69971;BME280;57301;50.328;8.542;2023-04-28T10:29:00;98058.34;;;14.45;81.63
69971;BME280;57301;50.328;8.542;2023-04-28T10:31:27;98057.22;;;15.40;78.32
69971;BME280;57301;50.328;8.542;2023-04-28T10:33:53;98061.22;;;15.72;80.12
69971;BME280;57301;50.328;8.542;2023-04-28T10:36:46;98043.34;;;16.47;80.82
69971;BME280;57301;50.328;8.542;2023-04-28T10:39:13;98040.38;;;16.22;76.46
69971;BME280;57301;50.328;8.542;2023-04-28T10:41:40;98022.09;;;16.11;79.24
69971;BME280;57301;50.328;8.542;2023-04-28T10:47:02;98025.41;;;16.74;76.72
69971;BME280;57301;50.328;8.542;2023-04-28T10:55:26;98030.66;;;16.89;74.36
69971;BME280;57301;50.328;8.542;2023-04-28T11:00:42;98034.25;;;18.14;70.37
69971;BME280;57301;50.328;8.542;2023-04-28T11:06:22;98025.88;;;17.17;72.36
69971;BME280;57301;50.328;8.542;2023-04-28T11:08:55;98023.81;;;17.13;73.28
69971;BME280;57301;50.328;8.542;2023-04-28T11:11:29;98028.75;;;16.76;74.92
69971;BME280;57301;50.328;8.542;2023-04-28T11:19:21;98018.47;;;18.56;71.68
69971;BME280;57301;50.328;8.542;2023-04-28T11:21:48;98025.16;;;18.02;71.46
69971;BME280;57301;50.328;8.542;2023-04-28T11:24:14;98020.91;;;17.34;73.13
69971;BME280;57301;50.328;8.542;2023-04-28T11:26:42;98017.19;;;16.89;74.72
69971;BME280;57301;50.328;8.542;2023-04-28T11:29:10;98027.00;;;16.01;77.69
69971;BME280;57301;50.328;8.542;2023-04-28T11:31:38;98020.09;;;15.50;77.90
69971;BME280;57301;50.328;8.542;2023-04-28T11:34:06;98022.84;;;15.29;79.26
69971;BME280;57301;50.328;8.542;2023-04-28T11:36:37;98027.59;;;15.33;78.60
69971;BME280;57301;50.328;8.542;2023-04-28T11:39:07;98027.00;;;15.31;81.73
69971;BME280;57301;50.328;8.542;2023-04-28T11:41:38;98024.13;;;14.62;82.18
69971;BME280;57301;50.328;8.542;2023-04-28T11:46:43;98015.91;;;15.69;77.90
69971;BME280;57301;50.328;8.542;2023-04-28T11:49:11;98018.38;;;15.43;79.31
69971;BME280;57301;50.328;8.542;2023-04-28T11:51:38;98011.13;;;15.71;78.16
69971;BME280;57301;50.328;8.542;2023-04-28T11:54:05;98008.13;;;16.35;75.34
69971;BME280;57301;50.328;8.542;2023-04-28T11:56:38;98005.09;;;16.65;73.12
69971;BME280;57301;50.328;8.542;2023-04-28T11:59:09;98001.41;;;16.73;76.71
69971;BME280;57301;50.328;8.542;2023-04-28T12:04:10;97996.66;;;16.20;74.77
69971;BME280;57301;50.328;8.542;2023-04-28T12:06:39;98007.09;;;16.43;74.22
69971;BME280;57301;50.328;8.542;2023-04-28T12:09:18;98008.38;;;16.47;74.67
69971;BME280;57301;50.328;8.542;2023-04-28T12:11:54;98003.75;;;16.28;76.72
69971;BME280;57301;50.328;8.542;2023-04-28T12:14:23;97993.50;;;16.64;75.37
69971;BME280;57301;50.328;8.542;2023-04-28T12:16:50;98001.97;;;16.55;76.21
69971;BME280;57301;50.328;8.542;2023-04-28T12:19:17;98001.84;;;16.83;74.10
69971;BME280;57301;50.328;8.542;2023-04-28T12:22:05;98009.56;;;15.83;76.87
69971;BME280;57301;50.328;8.542;2023-04-28T12:24:32;98006.28;;;15.88;78.01
69971;BME280;57301;50.328;8.542;2023-04-28T12:27:18;98004.81;;;15.85;78.02
69971;BME280;57301;50.328;8.542;2023-04-28T12:29:47;97994.75;;;16.01;77.99
69971;BME280;57301;50.328;8.542;2023-04-28T12:32:14;98000.88;;;15.81;78.47
69971;BME280;57301;50.328;8.542;2023-04-28T12:34:41;98002.13;;;15.85;79.20
69971;BME280;57301;50.328;8.542;2023-04-28T12:37:09;98007.56;;;16.60;75.93
69971;BME280;57301;50.328;8.542;2023-04-28T12:39:40;98011.56;;;16.84;75.91
69971;BME280;57301;50.328;8.542;2023-04-28T12:42:07;98003.69;;;16.76;75.18
69971;BME280;57301;50.328;8.542;2023-04-28T12:44:35;98006.00;;;16.18;76.89
69971;BME280;57301;50.328;8.542;2023-04-28T12:47:07;97998.75;;;16.18;78.10
69971;BME280;57301;50.328;8.542;2023-04-28T12:49:34;97998.06;;;18.60;68.44
69971;BME280;57301;50.328;8.542;2023-04-28T12:52:02;97997.44;;;19.71;64.11
69971;BME280;57301;50.328;8.542;2023-04-28T12:54:29;97986.22;;;20.71;60.49
69971;BME280;57301;50.328;8.542;2023-04-28T12:56:56;97983.25;;;21.26;59.86
69971;BME280;57301;50.328;8.542;2023-04-28T12:59:23;97978.53;;;21.80;58.78
69971;BME280;57301;50.328;8.542;2023-04-28T13:01:50;97984.50;;;22.17;57.82
69971;BME280;57301;50.328;8.542;2023-04-28T13:04:17;97996.81;;;20.24;61.44
69971;BME280;57301;50.328;8.542;2023-04-28T13:06:45;98010.47;;;17.84;69.14
69971;BME280;57301;50.328;8.542;2023-04-28T13:09:16;98011.91;;;19.08;65.13
69971;BME280;57301;50.328;8.542;2023-04-28T13:11:43;97995.31;;;20.46;61.80
69971;BME280;57301;50.328;8.542;2023-04-28T13:14:09;97994.44;;;19.11;66.13
69971;BME280;57301;50.328;8.542;2023-04-28T13:16:36;97989.19;;;20.02;63.85
69971;BME280;57301;50.328;8.542;2023-04-28T13:19:03;97989.94;;;18.73;67.42
69971;BME280;57301;50.328;8.542;2023-04-28T13:21:29;97983.50;;;18.29;70.03
69971;BME280;57301;50.328;8.542;2023-04-28T13:23:57;97981.03;;;18.97;66.22
69971;BME280;57301;50.328;8.542;2023-04-28T13:26:24;97987.97;;;18.10;69.65
69971;BME280;57301;50.328;8.542;2023-04-28T13:28:52;97981.91;;;17.57;73.33
69971;BME280;57301;50.328;8.542;2023-04-28T13:31:19;97971.84;;;18.35;69.81
69971;BME280;57301;50.328;8.542;2023-04-28T13:33:45;97961.31;;;20.50;61.81
69971;BME280;57301;50.328;8.542;2023-04-28T13:36:12;97963.94;;;19.03;67.57
69971;BME280;57301;50.328;8.542;2023-04-28T13:38:39;97958.94;;;18.44;68.49
69971;BME280;57301;50.328;8.542;2023-04-28T13:41:05;97960.31;;;17.57;72.09
69971;BME280;57301;50.328;8.542;2023-04-28T13:43:32;97945.69;;;17.13;75.04
69971;BME280;57301;50.328;8.542;2023-04-28T13:45:59;97954.78;;;16.99;75.34
69971;BME280;57301;50.328;8.542;2023-04-28T13:48:27;97941.75;;;16.89;75.37
69971;BME280;57301;50.328;8.542;2023-04-28T13:50:54;97944.25;;;16.71;77.45
69971;BME280;57301;50.328;8.542;2023-04-28T13:53:21;97942.28;;;16.45;77.36
69971;BME280;57301;50.328;8.542;2023-04-28T13:55:49;97929.97;;;15.96;79.67
69971;BME280;57301;50.328;8.542;2023-04-28T13:58:16;97936.69;;;15.65;81.17
69971;BME280;57301;50.328;8.542;2023-04-28T14:00:43;97938.69;;;15.56;81.63
69971;BME280;57301;50.328;8.542;2023-04-28T14:03:09;97945.31;;;15.61;81.77
69971;BME280;57301;50.328;8.542;2023-04-28T14:05:37;97943.63;;;15.53;83.20
69971;BME280;57301;50.328;8.542;2023-04-28T14:08:15;97940.38;;;15.64;83.04